Time;durP1;ratioP1;P1;durP2;ratioP2;P2;SDS_P1;SDS_P2;PMS_P1;PMS_P2;Temp;Humidity;BMP_temperature;BMP_pressure;BME280_temperature;BME280_humidity;BME280_pressure;Samples;Min_cycle;Max_cycle;Signal;HPM_P1;HPM_P2
2021/11/02 00:00:18;;;;;;;5.22;3.55;;;;;;;8.69;nan;99518.31;4915938;28;20396;-80
2021/11/02 00:02:47;;;;;;;5.10;3.72;;;;;;;8.71;nan;99514.69;4907128;29;20046;-80
2021/11/02 00:05:15;;;;;;;6.60;3.63;;;;;;;8.73;nan;99517.28;4920310;29;20496;-81
2021/11/02 00:07:43;;;;;;;6.93;3.95;;;;;;;8.78;nan;99525.06;4937285;29;20040;-81
2021/11/02 00:10:10;;;;;;;6.93;4.00;;;;;;;8.73;nan;99522.56;4919490;29;20051;-81
2021/11/02 00:12:38;;;;;;;6.57;3.95;;;;;;;8.68;nan;99521.84;4901865;29;20065;-81
2021/11/02 00:15:05;;;;;;;5.97;3.90;;;;;;;8.68;nan;99516.59;4929589;28;20035;-81
2021/11/02 00:17:35;;;;;;;4.55;3.72;;;;;;;8.68;nan;99512.19;4933518;28;20086;-81
2021/11/02 00:20:05;;;;;;;6.13;3.55;;;;;;;8.67;nan;99510.47;4934928;29;20036;-81
2021/11/02 00:22:34;;;;;;;6.63;3.80;;;;;;;8.68;nan;99511.31;4940507;29;20116;-81
2021/11/02 00:25:06;;;;;;;5.35;3.55;;;;;;;8.70;nan;99512.13;4923239;29;20039;-82
2021/11/02 00:27:38;;;;;;;8.00;4.40;;;;;;;8.68;nan;99499.00;4908818;29;20048;-81
2021/11/02 00:30:11;;;;;;;6.55;4.05;;;;;;;8.71;nan;99493.63;4931885;29;20040;-80
2021/11/02 00:32:39;;;;;;;6.35;4.28;;;;;;;8.67;nan;99485.91;4916710;29;20051;-82
2021/11/02 00:35:06;;;;;;;9.05;4.32;;;;;;;8.68;nan;99482.34;4929005;29;20047;-81
2021/11/02 00:37:33;;;;;;;6.30;4.22;;;;;;;8.65;nan;99488.56;4933261;29;20416;-81
2021/11/02 00:40:00;;;;;;;5.53;4.00;;;;;;;8.66;nan;99484.16;4932681;29;20050;-80
2021/11/02 00:42:36;;;;;;;8.02;4.07;;;;;;;8.63;nan;99484.25;4921591;29;20035;-81
2021/11/02 00:45:06;;;;;;;6.95;4.32;;;;;;;8.63;nan;99492.16;4921600;29;20073;-81
2021/11/02 00:47:33;;;;;;;7.13;4.68;;;;;;;8.63;nan;99484.25;4937299;29;20047;-81
2021/11/02 00:50:06;;;;;;;6.53;4.25;;;;;;;8.61;nan;99488.72;4929584;29;20061;-80
2021/11/02 00:52:34;;;;;;;7.50;4.45;;;;;;;8.63;nan;99481.63;4920278;29;20053;-81
2021/11/02 00:55:00;;;;;;;7.28;4.65;;;;;;;8.64;nan;99483.34;4922650;29;20432;-81
2021/11/02 00:57:27;;;;;;;6.15;4.03;;;;;;;8.73;nan;99485.69;4932684;29;20031;-81
2021/11/02 00:59:54;;;;;;;7.30;4.47;;;;;;;8.64;nan;99486.84;4921859;29;20032;-81
2021/11/02 01:02:21;;;;;;;5.68;4.25;;;;;;;8.70;nan;99483.16;4935892;29;20035;-81
2021/11/02 01:04:48;;;;;;;5.90;3.90;;;;;;;8.79;nan;99469.69;4943239;29;20043;-81
2021/11/02 01:07:15;;;;;;;8.48;4.20;;;;;;;8.72;nan;99473.44;4930464;29;20045;-81
2021/11/02 01:09:43;;;;;;;6.38;4.68;;;;;;;8.85;nan;99469.50;4909969;29;20509;-81
2021/11/02 01:12:11;;;;;;;5.95;4.40;;;;;;;8.75;nan;99470.72;4954968;28;20042;-81
2021/11/02 01:14:39;;;;;;;8.30;4.90;;;;;;;8.71;nan;99469.94;4932823;29;20036;-82
2021/11/02 01:17:06;;;;;;;8.68;4.78;;;;;;;8.74;nan;99477.75;4927415;29;20046;-82
2021/11/02 01:19:33;;;;;;;7.97;4.93;;;;;;;8.71;nan;99472.56;4909816;29;20049;-82
2021/11/02 01:22:00;;;;;;;7.25;4.80;;;;;;;8.70;nan;99465.59;4954293;29;20051;-81
2021/11/02 01:24:27;;;;;;;8.90;5.22;;;;;;;8.82;nan;99466.94;4922605;29;20036;-82
2021/11/02 01:26:54;;;;;;;6.68;3.95;;;;;;;8.81;nan;99467.00;4905131;29;20062;-82
2021/11/02 01:29:21;;;;;;;7.28;4.55;;;;;;;8.72;nan;99465.53;4924458;29;20050;-81
2021/11/02 01:31:48;;;;;;;6.85;4.50;;;;;;;8.79;nan;99459.16;4918611;29;20038;-82
2021/11/02 01:34:15;;;;;;;7.05;4.82;;;;;;;8.72;nan;99457.63;4950947;28;20053;-81
2021/11/02 01:36:43;;;;;;;6.32;4.10;;;;;;;8.70;nan;99457.69;4946018;29;20039;-81
2021/11/02 01:39:10;;;;;;;7.53;5.03;;;;;;;8.74;nan;99450.53;4930399;29;20053;-81
2021/11/02 01:41:37;;;;;;;7.43;5.30;;;;;;;8.77;nan;99453.09;4919982;29;20041;-81
2021/11/02 01:44:05;;;;;;;7.80;5.85;;;;;;;8.76;nan;99450.53;4918051;29;20039;-82
2021/11/02 01:46:34;;;;;;;7.22;4.40;;;;;;;8.76;nan;99442.63;4932110;29;20040;-82
2021/11/02 02:28:20;;;;;;;7.25;4.65;;;;;;;8.80;nan;99428.41;5008322;23;20126;-82
2021/11/02 02:34:12;;;;;;;8.32;4.63;;;;;;;8.78;nan;99428.47;4970696;28;20309;-81
2021/11/02 02:36:40;;;;;;;11.35;6.07;;;;;;;8.90;nan;99428.06;4941725;28;20427;-81
2021/11/02 02:39:09;;;;;;;9.75;5.05;;;;;;;8.82;nan;99416.91;4914531;28;20411;-82
2021/11/02 02:41:39;;;;;;;7.55;5.45;;;;;;;8.85;nan;99413.34;4935514;28;20031;-82
2021/11/02 02:44:08;;;;;;;8.98;5.43;;;;;;;8.88;nan;99418.50;4944261;29;20417;-82
2021/11/02 02:46:36;;;;;;;8.10;5.53;;;;;;;8.85;nan;99416.84;4914237;28;20053;-82
2021/11/02 02:49:04;;;;;;;6.78;5.28;;;;;;;8.85;nan;99418.63;4942505;28;20035;-81
2021/11/02 02:51:33;;;;;;;8.30;5.78;;;;;;;8.91;nan;99411.38;4930305;29;20051;-82
2021/11/02 02:54:01;;;;;;;7.80;5.40;;;;;;;8.90;nan;99416.66;4932024;28;20039;-82
2021/11/02 02:56:30;;;;;;;8.95;6.10;;;;;;;8.94;nan;99416.53;4955542;28;20046;-82
2021/11/02 02:59:01;;;;;;;7.30;4.95;;;;;;;8.87;nan;99409.75;4949994;28;20541;-83
2021/11/02 03:01:28;;;;;;;7.13;5.45;;;;;;;8.82;nan;99411.66;4938659;29;20427;-82
2021/11/02 03:04:17;;;;;;;9.02;5.28;;;;;;;8.85;nan;99421.25;4924988;28;20397;-82
2021/11/02 03:06:46;;;;;;;10.10;5.55;;;;;;;8.83;nan;99418.66;4941243;28;20090;-81
2021/11/02 03:09:14;;;;;;;7.63;5.50;;;;;;;8.92;nan;99415.72;4938198;28;20031;-83
2021/11/02 03:11:42;;;;;;;6.80;5.18;;;;;;;8.82;nan;99422.19;4928193;28;20242;-82
2021/11/02 03:14:12;;;;;;;9.10;5.63;;;;;;;8.88;nan;99424.63;4943668;28;20043;-81
2021/11/02 03:19:49;;;;;;;9.15;5.38;;;;;;;8.81;nan;99427.50;4941826;28;20046;-83
2021/11/02 03:49:59;;;;;;;8.00;5.35;;;;;;;8.83;nan;99418.66;4942884;28;20849;-83
2021/11/02 03:54:59;;;;;;;8.07;5.57;;;;;;;8.81;nan;99414.34;4938112;28;20516;-82
2021/11/02 03:58:07;;;;;;;8.32;5.13;;;;;;;8.82;nan;99414.28;4934882;29;20046;-82
2021/11/02 04:42:29;;;;;;;6.55;4.97;;;;;;;8.74;nan;99390.88;4948990;28;20039;-83
2021/11/02 04:47:04;;;;;;;7.28;5.07;;;;;;;8.78;nan;99382.84;4955845;28;20045;-83
2021/11/02 05:12:33;;;;;;;6.13;4.32;;;;;;;8.69;nan;99390.16;4958676;28;20640;-83
2021/11/02 05:56:14;;;;;;;6.22;4.70;;;;;;;8.71;nan;99383.06;4926055;29;20119;-83
2021/11/02 06:01:53;;;;;;;9.43;5.82;;;;;;;8.67;nan;99377.94;4903322;29;20032;-84
2021/11/02 06:10:43;;;;;;;9.07;5.35;;;;;;;8.67;nan;99360.38;4949963;28;20047;-83
2021/11/02 06:30:25;;;;;;;6.47;4.85;;;;;;;8.73;nan;99370.69;4961889;28;20117;-84
2021/11/02 06:33:04;;;;;;;7.40;5.18;;;;;;;8.71;nan;99371.66;4943557;28;20106;-83
2021/11/02 06:35:39;;;;;;;7.80;5.20;;;;;;;8.75;nan;99370.66;4961193;28;20122;-84
2021/11/02 06:51:37;;;;;;;8.18;5.10;;;;;;;8.84;nan;99372.97;4963880;28;20121;-82
2021/11/02 07:20:28;;;;;;;9.25;5.60;;;;;;;8.87;nan;99380.75;4942757;29;20142;-84
2021/11/02 07:25:48;;;;;;;8.15;4.93;;;;;;;8.78;nan;99369.69;4927466;28;20119;-84
2021/11/02 08:45:12;;;;;;;10.10;6.43;;;;;;;9.05;nan;99363.47;4919935;29;20044;-81
2021/11/02 08:47:42;;;;;;;9.10;5.60;;;;;;;8.95;nan;99369.97;4919925;29;20054;-81
2021/11/02 08:50:10;;;;;;;10.88;6.20;;;;;;;8.88;nan;99366.69;4932503;29;20035;-81
2021/11/02 08:52:39;;;;;;;9.13;5.88;;;;;;;8.74;nan;99367.16;4923018;29;20043;-81
2021/11/02 08:55:08;;;;;;;9.05;6.47;;;;;;;8.81;nan;99369.56;4936644;29;20066;-82
2021/11/02 08:57:35;;;;;;;9.73;6.30;;;;;;;8.78;nan;99364.41;4920549;28;20051;-81
2021/11/02 09:00:04;;;;;;;8.63;5.72;;;;;;;8.83;nan;99366.00;4919653;29;20043;-81
2021/11/02 09:02:35;;;;;;;10.55;6.60;;;;;;;9.05;nan;99375.78;4922069;29;20059;-80
2021/11/02 09:05:08;;;;;;;9.88;6.10;;;;;;;8.90;nan;99366.63;4920398;29;20047;-81
2021/11/02 09:07:39;;;;;;;12.27;6.65;;;;;;;8.94;nan;99373.53;4953930;29;20035;-81
2021/11/02 09:10:18;;;;;;;9.35;6.47;;;;;;;8.83;nan;99373.00;4936468;29;20046;-81
2021/11/02 09:12:49;;;;;;;9.23;5.65;;;;;;;8.74;nan;99366.28;4905633;29;20055;-82
2021/11/02 09:15:22;;;;;;;9.52;5.05;;;;;;;8.76;nan;99361.84;4920526;29;20051;-81
2021/11/02 09:17:55;;;;;;;9.85;6.18;;;;;;;8.79;nan;99367.00;4926898;29;20055;-81
2021/11/02 09:20:25;;;;;;;10.27;6.80;;;;;;;8.82;nan;99366.88;4927072;29;20054;-81
2021/11/02 09:22:52;;;;;;;12.20;7.05;;;;;;;8.85;nan;99366.78;4936376;29;20027;-81
2021/11/02 09:25:20;;;;;;;11.02;6.90;;;;;;;8.85;nan;99371.19;4920206;29;20046;-81
2021/11/02 09:27:48;;;;;;;10.18;7.70;;;;;;;8.88;nan;99364.03;4919085;29;20043;-81
2021/11/02 09:30:17;;;;;;;9.88;6.25;;;;;;;8.89;nan;99364.91;4915916;29;20057;-81
2021/11/02 09:32:46;;;;;;;10.48;6.43;;;;;;;8.90;nan;99364.84;4920422;29;20505;-81
2021/11/02 09:35:15;;;;;;;11.07;6.70;;;;;;;8.98;nan;99367.22;4935846;29;20039;-81
2021/11/02 09:38:06;;;;;;;10.88;6.28;;;;;;;8.96;nan;99363.78;4920828;29;20058;-81
2021/11/02 09:40:53;;;;;;;10.60;6.03;;;;;;;9.00;nan;99360.16;4940209;28;20046;-82
2021/11/02 09:43:45;;;;;;;10.88;6.50;;;;;;;9.03;nan;99363.53;4950675;28;20039;-81
2021/11/02 09:46:44;;;;;;;11.60;6.47;;;;;;;9.01;nan;99357.47;4934053;29;20055;-80
2021/11/02 09:49:27;;;;;;;10.90;6.88;;;;;;;9.05;nan;99362.59;4951942;28;20127;-81
2021/11/02 09:52:21;;;;;;;8.82;5.75;;;;;;;9.07;nan;99350.22;4929723;29;20047;-83
2021/11/02 09:55:11;;;;;;;9.15;5.93;;;;;;;9.11;nan;99354.50;4912888;29;20396;-82
2021/11/02 09:58:00;;;;;;;11.02;6.75;;;;;;;9.17;nan;99356.91;4951899;28;20043;-82
2021/11/02 10:00:40;;;;;;;11.50;6.38;;;;;;;9.18;nan;99356.00;4951002;28;20043;-82
2021/11/02 10:03:30;;;;;;;11.27;6.53;;;;;;;9.19;nan;99358.56;4934521;28;20057;-83
2021/11/02 10:06:10;;;;;;;10.15;6.32;;;;;;;9.12;nan;99345.66;4973206;28;20061;-83
2021/11/02 10:08:56;;;;;;;9.52;6.30;;;;;;;9.13;nan;99348.25;4916889;29;20504;-83
2021/11/02 10:11:29;;;;;;;10.10;6.40;;;;;;;9.13;nan;99345.63;4950035;28;20046;-84
2021/11/02 10:14:08;;;;;;;9.65;6.47;;;;;;;9.31;nan;99352.00;4950962;28;20052;-83
2021/11/02 10:16:47;;;;;;;6.95;4.80;;;;;;;9.41;nan;99348.09;4934833;29;20047;-83
2021/11/02 10:19:32;;;;;;;4.85;3.33;;;;;;;9.23;nan;99354.03;4943845;28;20053;-83
2021/11/02 10:22:21;;;;;;;4.45;2.92;;;;;;;9.35;nan;99358.88;4906626;29;20047;-83
2021/11/02 10:25:03;;;;;;;3.70;2.65;;;;;;;9.28;nan;99357.38;4917578;29;20043;-84
2021/11/02 10:28:06;;;;;;;3.65;2.55;;;;;;;9.37;nan;99354.41;4924558;29;20049;-83
2021/11/02 10:30:47;;;;;;;3.72;1.90;;;;;;;9.28;nan;99358.25;4935332;29;20047;-83
2021/11/02 10:33:21;;;;;;;2.17;1.45;;;;;;;9.21;nan;99361.16;4935564;28;20041;-85
2021/11/02 10:36:09;;;;;;;4.03;2.13;;;;;;;9.33;nan;99365.97;4936803;29;20062;-84
2021/11/02 10:39:07;;;;;;;2.50;1.70;;;;;;;9.22;nan;99357.59;4950704;29;20046;-82
2021/11/02 10:41:43;;;;;;;1.95;1.30;;;;;;;9.20;nan;99355.03;4935475;29;20139;-84
2021/11/02 10:44:21;;;;;;;10.43;6.20;;;;;;;9.24;nan;99353.97;4934528;29;20051;-84
2021/11/02 10:46:59;;;;;;;285.23;161.52;;;;;;;9.27;nan;99360.94;4937114;29;20039;-83
2021/11/02 10:49:51;;;;;;;162.23;89.13;;;;;;;9.20;nan;99362.06;4942561;29;20098;-84
2021/11/02 10:52:19;;;;;;;15.95;9.15;;;;;;;9.31;nan;99362.53;4941050;29;20128;-83
2021/11/02 10:54:50;;;;;;;14.25;10.95;;;;;;;9.26;nan;99352.19;4918958;29;20047;-84
2021/11/02 10:57:33;;;;;;;11.95;10.48;;;;;;;9.36;nan;99360.59;4935764;29;20097;-82
2021/11/02 11:00:05;;;;;;;3.03;1.98;;;;;;;9.23;nan;99365.44;4919386;29;20043;-82
2021/11/02 11:02:32;;;;;;;1.75;1.27;;;;;;;9.19;nan;99363.84;4920475;29;20497;-82
2021/11/02 11:05:01;;;;;;;40.50;37.83;;;;;;;9.29;nan;99356.47;4917138;29;20054;-81
2021/11/02 11:07:42;;;;;;;10.85;10.05;;;;;;;9.18;nan;99358.63;4918707;29;20047;-83
2021/11/02 11:10:15;;;;;;;9.20;4.43;;;;;;;9.20;nan;99354.16;4912960;29;20047;-83
2021/11/02 11:12:49;;;;;;;6.57;5.32;;;;;;;9.23;nan;99348.78;4937345;29;20042;-82
2021/11/02 11:15:16;;;;;;;2.80;1.40;;;;;;;9.24;nan;99351.34;4927689;29;20055;-82
2021/11/02 11:17:49;;;;;;;4.25;3.78;;;;;;;9.29;nan;99346.78;4923038;29;20043;-83
2021/11/02 11:20:17;;;;;;;6.82;6.22;;;;;;;9.26;nan;99346.06;4934325;29;20043;-82
2021/11/02 11:22:48;;;;;;;2.25;1.77;;;;;;;9.37;nan;99349.16;4919590;28;20051;-83
2021/11/02 11:25:19;;;;;;;3.85;1.83;;;;;;;9.36;nan;99344.78;4923295;29;20047;-83
2021/11/02 11:27:48;;;;;;;1.45;1.10;;;;;;;9.23;nan;99343.50;4958034;29;20150;-83
2021/11/02 11:30:16;;;;;;;2.90;1.73;;;;;;;9.17;nan;99339.34;4938884;29;20404;-83
2021/11/02 11:32:47;;;;;;;1.48;1.00;;;;;;;9.18;nan;99342.81;4940846;29;20036;-83
2021/11/02 11:35:14;;;;;;;1.35;1.20;;;;;;;9.16;nan;99348.13;4917592;29;20048;-83
2021/11/02 11:37:43;;;;;;;2.08;1.50;;;;;;;9.19;nan;99349.81;4932340;29;20047;-83
2021/11/02 11:40:14;;;;;;;1.48;1.08;;;;;;;9.15;nan;99348.19;4920168;29;20036;-84
2021/11/02 11:42:44;;;;;;;5.30;2.17;;;;;;;9.13;nan;99348.25;4953948;28;20471;-84
2021/11/02 11:45:26;;;;;;;3.80;1.50;;;;;;;9.11;nan;99346.59;4920936;29;20046;-83
2021/11/02 11:48:13;;;;;;;2.40;1.80;;;;;;;9.09;nan;99345.78;4890493;29;20047;-83
2021/11/02 11:50:42;;;;;;;1.90;1.58;;;;;;;9.02;nan;99335.47;4923633;28;20281;-83
2021/11/02 11:53:11;;;;;;;1.52;1.15;;;;;;;9.04;nan;99335.41;4909525;28;20059;-83
2021/11/02 11:55:40;;;;;;;2.38;1.40;;;;;;;9.04;nan;99340.66;4922469;29;20042;-85
2021/11/02 11:58:07;;;;;;;2.95;1.25;;;;;;;9.18;nan;99340.19;4918147;29;20051;-84
2021/11/02 12:00:36;;;;;;;1.65;1.30;;;;;;;9.14;nan;99352.59;4937460;29;20051;-84
2021/11/02 12:03:25;;;;;;;1.90;1.20;;;;;;;9.14;nan;99338.56;4939081;29;20127;-83
2021/11/02 12:06:02;;;;;;;1.77;1.25;;;;;;;9.12;nan;99338.63;4938839;29;20054;-83
2021/11/02 12:08:44;;;;;;;1.67;1.23;;;;;;;9.09;nan;99335.25;4921579;29;20126;-84
2021/11/02 12:11:17;;;;;;;2.10;1.73;;;;;;;9.11;nan;99346.59;4938726;29;20139;-84
2021/11/02 12:13:47;;;;;;;1.98;1.20;;;;;;;8.99;nan;99347.88;4929478;29;20036;-84
2021/11/02 12:16:27;;;;;;;2.75;1.20;;;;;;;9.01;nan;99344.28;4953431;28;20034;-84
2021/11/02 12:19:06;;;;;;;2.15;1.48;;;;;;;8.97;nan;99344.44;4924919;29;20047;-84
2021/11/02 12:21:34;;;;;;;1.55;1.17;;;;;;;9.08;nan;99341.41;4941006;29;20049;-85
2021/11/02 12:24:07;;;;;;;1.95;1.38;;;;;;;9.03;nan;99342.44;4932725;29;20042;-84
2021/11/02 12:26:42;;;;;;;2.47;1.40;;;;;;;9.03;nan;99342.44;4925671;29;20062;-84
2021/11/02 12:29:28;;;;;;;2.58;1.48;;;;;;;9.12;nan;99346.53;4935358;29;20043;-83
2021/11/02 12:32:04;;;;;;;2.47;1.42;;;;;;;9.00;nan;99346.97;4941763;29;20043;-83
2021/11/02 12:34:48;;;;;;;3.42;1.40;;;;;;;8.90;nan;99351.69;4922946;29;20041;-84
2021/11/02 12:37:16;;;;;;;2.03;1.50;;;;;;;8.94;nan;99353.31;4924338;29;20159;-84
2021/11/02 12:39:43;;;;;;;4.57;2.22;;;;;;;9.09;nan;99353.69;4922617;29;20116;-83
2021/11/02 12:42:11;;;;;;;3.42;1.58;;;;;;;8.99;nan;99345.22;4923826;29;20044;-85
2021/11/02 12:44:40;;;;;;;2.47;1.30;;;;;;;8.91;nan;99349.91;4940847;29;20392;-84
2021/11/02 12:47:13;;;;;;;2.40;1.70;;;;;;;8.98;nan;99354.06;4920887;29;20444;-84
2021/11/02 12:49:45;;;;;;;4.53;1.88;;;;;;;8.99;nan;99347.88;4933666;29;20042;-81
2021/11/02 12:52:13;;;;;;;3.33;1.60;;;;;;;9.04;nan;99351.22;4958118;28;20710;-84
2021/11/02 12:54:41;;;;;;;4.82;1.80;;;;;;;9.02;nan;99348.63;4924135;29;20037;-84
2021/11/02 12:57:16;;;;;;;3.30;1.77;;;;;;;9.11;nan;99349.22;4940990;29;20058;-83
2021/11/02 12:59:51;;;;;;;3.58;2.20;;;;;;;9.14;nan;99351.75;4921603;29;20474;-83
2021/11/02 13:02:34;;;;;;;5.18;2.45;;;;;;;9.18;nan;99350.72;4922769;29;20043;-84
2021/11/02 13:05:19;;;;;;;4.32;2.45;;;;;;;9.08;nan;99347.56;4909676;29;20038;-83
2021/11/02 13:07:50;;;;;;;7.82;2.63;;;;;;;9.14;nan;99352.59;4939102;29;20041;-84
2021/11/02 13:10:20;;;;;;;5.15;2.20;;;;;;;9.16;nan;99352.53;4947050;29;20110;-83
2021/11/02 13:12:52;;;;;;;5.47;3.40;;;;;;;9.21;nan;99354.09;4907038;29;20663;-83
2021/11/02 13:15:20;;;;;;;7.68;2.88;;;;;;;9.23;nan;99351.41;4925172;29;20035;-82
2021/11/02 13:17:49;;;;;;;6.45;3.25;;;;;;;9.32;nan;99344.03;4934336;29;20748;-84
2021/11/02 13:20:32;;;;;;;7.20;3.60;;;;;;;9.36;nan;99352.69;4946935;28;20043;-84
2021/11/02 13:23:00;;;;;;;8.75;4.60;;;;;;;9.37;nan;99349.16;4938478;29;20043;-83
2021/11/02 13:25:41;;;;;;;9.88;4.30;;;;;;;9.43;nan;99345.44;4938529;28;20048;-83
2021/11/02 13:28:08;;;;;;;9.40;4.38;;;;;;;9.48;nan;99344.31;4936800;29;20040;-84
2021/11/02 13:30:37;;;;;;;6.30;3.88;;;;;;;9.48;nan;99343.47;4938159;29;20112;-83
2021/11/02 13:33:13;;;;;;;7.25;4.18;;;;;;;9.33;nan;99347.53;4941931;29;20035;-84
2021/11/02 13:35:47;;;;;;;6.38;3.85;;;;;;;9.36;nan;99354.47;4942747;29;20036;-83
2021/11/02 13:38:38;;;;;;;6.88;3.85;;;;;;;9.17;nan;99355.16;4940532;28;20039;-83
2021/11/02 13:41:25;;;;;;;8.93;3.90;;;;;;;9.31;nan;99362.53;4968983;28;20118;-84
2021/11/02 13:43:59;;;;;;;5.63;3.47;;;;;;;9.39;nan;99362.25;4933836;29;20106;-84
2021/11/02 13:46:28;;;;;;;6.63;3.72;;;;;;;9.44;nan;99358.56;4922828;29;20135;-84
2021/11/02 13:48:55;;;;;;;6.75;3.70;;;;;;;9.41;nan;99368.34;4941306;29;20118;-84
2021/11/02 13:51:23;;;;;;;6.90;4.13;;;;;;;9.44;nan;99366.47;4927398;29;20099;-85
2021/11/02 13:53:52;;;;;;;8.60;4.00;;;;;;;9.46;nan;99359.34;4913567;29;20058;-83
2021/11/02 13:56:23;;;;;;;6.20;3.80;;;;;;;9.36;nan;99355.34;4939599;29;20456;-83
2021/11/02 13:58:53;;;;;;;6.85;3.85;;;;;;;9.27;nan;99363.56;4921948;29;20044;-84
2021/11/02 14:01:30;;;;;;;10.52;5.05;;;;;;;9.35;nan;99365.94;4940978;29;20127;-84
2021/11/02 14:04:09;;;;;;;9.75;4.47;;;;;;;9.38;nan;99364.03;4936937;29;20039;-83
2021/11/02 14:06:44;;;;;;;9.43;5.28;;;;;;;9.38;nan;99363.19;4936412;29;20043;-83
2021/11/02 14:09:22;;;;;;;6.43;4.20;;;;;;;9.36;nan;99370.28;4918310;29;20489;-83
2021/11/02 14:11:49;;;;;;;6.22;3.85;;;;;;;9.27;nan;99368.84;5041990;23;20115;-84
2021/11/02 14:14:33;;;;;;;7.80;4.88;;;;;;;9.27;nan;99363.56;4969404;28;20090;-83
2021/11/02 14:17:21;;;;;;;8.73;4.60;;;;;;;9.22;nan;99358.47;4975152;28;20070;-84
2021/11/02 14:19:52;;;;;;;6.35;3.92;;;;;;;9.17;nan;99365.69;4946281;28;20058;-83
2021/11/02 14:22:41;;;;;;;9.05;4.88;;;;;;;9.22;nan;99357.59;4948928;28;20207;-87
2021/11/02 14:25:16;;;;;;;7.55;4.60;;;;;;;9.20;nan;99362.06;4958849;28;20042;-84
2021/11/02 14:27:45;;;;;;;7.82;5.03;;;;;;;9.18;nan;99362.13;4940900;28;20060;-85
2021/11/02 14:30:31;;;;;;;8.63;4.55;;;;;;;9.12;nan;99357.06;4954089;28;20407;-85
2021/11/02 14:33:19;;;;;;;10.85;4.70;;;;;;;9.17;nan;99354.28;4956098;28;20035;-85
2021/11/02 14:35:50;;;;;;;7.53;4.30;;;;;;;9.10;nan;99356.28;4936537;28;20047;-84
2021/11/02 14:38:18;;;;;;;9.52;4.78;;;;;;;9.08;nan;99355.47;4928068;28;20043;-83
2021/11/02 14:40:58;;;;;;;6.82;4.47;;;;;;;9.10;nan;99352.78;4956627;28;20043;-85
2021/11/02 14:43:33;;;;;;;10.23;5.32;;;;;;;9.05;nan;99355.56;4922106;28;20055;-82
2021/11/02 14:46:05;;;;;;;7.55;4.55;;;;;;;9.08;nan;99351.94;4939976;28;20500;-83
2021/11/02 14:48:38;;;;;;;6.22;4.93;;;;;;;9.05;nan;99350.28;4928338;28;20052;-83
2021/11/02 14:51:17;;;;;;;7.82;4.82;;;;;;;9.11;nan;99350.09;4959353;28;20064;-82
2021/11/02 14:53:45;;;;;;;6.80;5.05;;;;;;;9.12;nan;99362.34;4973846;28;20030;-86
2021/11/02 14:56:15;;;;;;;8.30;6.25;;;;;;;9.17;nan;99354.28;4971806;28;20035;-82
2021/11/02 14:58:52;;;;;;;10.07;6.03;;;;;;;9.08;nan;99362.47;4926718;28;20507;-81
2021/11/02 15:01:45;;;;;;;9.80;5.95;;;;;;;9.10;nan;99363.31;4963365;28;20122;-82
2021/11/02 15:04:26;;;;;;;10.07;6.45;;;;;;;9.11;nan;99375.56;4956751;28;20050;-81
2021/11/02 15:07:01;;;;;;;9.63;5.78;;;;;;;9.09;nan;99369.50;4958447;28;20094;-81
2021/11/02 15:09:31;;;;;;;9.70;5.68;;;;;;;9.06;nan;99372.22;4961537;28;20082;-82
2021/11/02 15:11:58;;;;;;;13.25;6.68;;;;;;;9.02;nan;99367.06;4947608;28;20102;-81
2021/11/02 15:14:31;;;;;;;11.65;7.40;;;;;;;9.01;nan;99375.91;4928561;28;20046;-83
2021/11/02 15:17:05;;;;;;;12.05;6.40;;;;;;;8.99;nan;99369.78;4934430;28;20599;-82
2021/11/02 15:19:41;;;;;;;10.85;5.45;;;;;;;8.99;nan;99376.84;4934945;28;20556;-82
2021/11/02 15:22:09;;;;;;;11.70;6.32;;;;;;;9.01;nan;99380.31;4934567;28;20484;-82
2021/11/02 15:24:42;;;;;;;11.68;6.57;;;;;;;9.03;nan;99374.06;4960150;28;20118;-81
2021/11/02 15:27:17;;;;;;;8.60;5.00;;;;;;;8.95;nan;99376.09;4955535;28;20042;-82
2021/11/02 15:29:47;;;;;;;8.85;6.10;;;;;;;8.91;nan;99376.25;4938415;28;20043;-81
2021/11/02 15:32:22;;;;;;;10.63;6.38;;;;;;;8.89;nan;99376.28;4954777;28;20046;-82
2021/11/02 15:34:58;;;;;;;12.98;6.00;;;;;;;8.95;nan;99381.38;4924037;28;20043;-82
2021/11/02 15:37:29;;;;;;;14.77;6.80;;;;;;;8.98;nan;99375.13;4955032;28;20043;-81
2021/11/02 15:40:02;;;;;;;13.05;8.00;;;;;;;8.93;nan;99383.19;4933011;28;20042;-81
2021/11/02 15:42:33;;;;;;;12.60;7.13;;;;;;;8.90;nan;99375.38;4937096;28;20039;-82
2021/11/02 15:45:09;;;;;;;13.60;7.82;;;;;;;8.98;nan;99380.38;4948310;28;20049;-81
2021/11/02 15:47:46;;;;;;;13.23;8.25;;;;;;;8.91;nan;99379.75;4937016;28;20057;-82
2021/11/02 15:50:19;;;;;;;13.50;7.63;;;;;;;8.89;nan;99381.56;4932261;28;20035;-82
2021/11/02 15:52:47;;;;;;;13.65;7.97;;;;;;;8.87;nan;99382.53;4944352;28;20047;-82
2021/11/02 15:55:17;;;;;;;13.40;8.30;;;;;;;8.85;nan;99379.09;4948180;28;20526;-81
2021/11/02 15:57:53;;;;;;;12.75;7.65;;;;;;;8.87;nan;99385.19;4936731;28;20051;-81
2021/11/02 16:00:31;;;;;;;11.73;6.45;;;;;;;8.83;nan;99383.53;4912373;29;20073;-81
2021/11/02 16:02:59;;;;;;;10.40;7.13;;;;;;;8.81;nan;99383.59;4910861;29;20081;-82
2021/11/02 16:05:27;;;;;;;10.95;7.25;;;;;;;8.81;nan;99388.00;4945339;28;20538;-81
2021/11/02 16:07:55;;;;;;;13.00;6.78;;;;;;;8.76;nan;99380.28;4929354;28;20055;-81
2021/11/02 16:10:27;;;;;;;10.57;7.00;;;;;;;8.79;nan;99388.06;4930135;28;20031;-81
2021/11/02 16:12:54;;;;;;;12.80;7.07;;;;;;;8.78;nan;99385.50;4956048;28;20045;-82
2021/11/02 16:15:28;;;;;;;10.80;6.95;;;;;;;8.76;nan;99385.53;4923881;28;20053;-82
2021/11/02 16:18:00;;;;;;;10.93;7.20;;;;;;;8.74;nan;99387.34;4935105;29;20054;-82
2021/11/02 16:20:28;;;;;;;12.90;7.20;;;;;;;8.72;nan;99392.66;4935525;29;20105;-81
2021/11/02 16:23:16;;;;;;;14.05;7.25;;;;;;;8.75;nan;99394.34;4920739;29;20415;-81
2021/11/02 16:25:56;;;;;;;12.98;7.63;;;;;;;8.73;nan;99394.38;4942691;29;20043;-81
2021/11/02 16:28:28;;;;;;;10.50;6.35;;;;;;;8.70;nan;99391.00;4952728;28;20043;-82
2021/11/02 16:31:01;;;;;;;13.77;8.18;;;;;;;8.68;nan;99385.78;4921578;28;20047;-82
2021/11/02 16:33:33;;;;;;;12.68;7.78;;;;;;;8.69;nan;99389.28;4919787;28;20053;-81
2021/11/02 16:36:24;;;;;;;12.75;6.97;;;;;;;8.71;nan;99392.72;4942034;28;20135;-81
2021/11/02 16:39:12;;;;;;;12.65;7.72;;;;;;;8.70;nan;99391.00;4931357;28;20089;-81
2021/11/02 16:41:59;;;;;;;13.65;7.45;;;;;;;8.65;nan;99393.78;4951152;28;20043;-81
2021/11/02 16:44:33;;;;;;;13.52;7.90;;;;;;;8.62;nan;99400.94;4963296;28;20036;-82
2021/11/02 16:47:22;;;;;;;14.93;8.65;;;;;;;8.67;nan;99393.75;4939189;28;20423;-81
2021/11/02 16:49:49;;;;;;;12.13;8.25;;;;;;;8.63;nan;99400.88;4940402;28;20073;-82
2021/11/02 16:52:30;;;;;;;17.50;9.13;;;;;;;8.84;nan;99393.19;4939137;28;20047;-81
2021/11/02 16:55:11;;;;;;;15.32;8.35;;;;;;;8.71;nan;99395.34;4931257;28;20524;-81
2021/11/02 16:57:38;;;;;;;15.10;8.75;;;;;;;8.65;nan;99399.03;4940354;28;20051;-81
2021/11/02 17:00:11;;;;;;;15.73;8.82;;;;;;;8.72;nan;99397.06;4957111;28;20411;-81
2021/11/02 17:02:40;;;;;;;13.30;7.47;;;;;;;8.65;nan;99409.56;4955638;28;20057;-81
2021/11/02 17:05:21;;;;;;;12.73;7.88;;;;;;;8.57;nan;99403.69;4941782;28;20039;-81
2021/11/02 17:08:04;;;;;;;14.95;7.53;;;;;;;8.55;nan;99413.41;4967356;28;20042;-81
2021/11/02 17:10:39;;;;;;;14.18;8.13;;;;;;;8.53;nan;99409.97;4940766;28;20043;-82
2021/11/02 17:13:33;;;;;;;17.60;9.25;;;;;;;8.56;nan;99409.88;4941102;28;20047;-80
2021/11/02 17:16:02;;;;;;;14.17;9.63;;;;;;;8.57;nan;99413.38;4924639;28;20672;-82
2021/11/02 17:19:02;;;;;;;13.98;7.95;;;;;;;8.54;nan;99410.84;4937890;28;20042;-81
2021/11/02 17:21:31;;;;;;;14.35;8.07;;;;;;;8.53;nan;99409.97;4912674;28;20066;-82
2021/11/02 17:23:59;;;;;;;27.13;10.50;;;;;;;8.53;nan;99409.13;4939237;28;20053;-81
2021/11/02 17:26:28;;;;;;;14.57;8.00;;;;;;;8.49;nan;99408.34;4960725;28;20134;-82
2021/11/02 17:28:56;;;;;;;14.85;8.57;;;;;;;8.54;nan;99410.84;4939757;28;20043;-82
2021/11/02 17:31:25;;;;;;;14.05;9.00;;;;;;;8.50;nan;99414.50;4919256;29;20048;-81
2021/11/02 17:33:53;;;;;;;20.00;10.45;;;;;;;8.69;nan;99408.56;4947234;28;20681;-82
2021/11/02 17:36:21;;;;;;;16.15;9.82;;;;;;;8.57;nan;99416.84;4931734;28;20064;-82
2021/11/02 17:38:51;;;;;;;14.73;9.50;;;;;;;8.52;nan;99415.31;4934195;29;20045;-81
2021/11/02 17:41:18;;;;;;;16.27;9.65;;;;;;;8.54;nan;99424.00;4951146;29;20043;-81
2021/11/02 17:43:48;;;;;;;15.82;10.55;;;;;;;8.63;nan;99429.84;4939032;29;20039;-81
2021/11/02 17:46:15;;;;;;;17.10;9.25;;;;;;;8.61;nan;99429.03;4938177;29;20043;-80
2021/11/02 17:48:42;;;;;;;13.05;8.65;;;;;;;8.54;nan;99431.91;4929714;29;20971;-81
2021/11/02 17:51:10;;;;;;;12.80;8.27;;;;;;;8.44;nan;99432.19;4938146;29;20036;-81
2021/11/02 17:53:38;;;;;;;14.00;7.90;;;;;;;8.41;nan;99434.94;4932195;29;20043;-81
2021/11/02 17:56:09;;;;;;;14.98;8.88;;;;;;;8.40;nan;99442.84;4950787;28;20491;-82